createdAt,value
2023-11-24T00:04:38.708Z,5.20
2023-11-24T00:09:41.264Z,3.55
2023-11-24T00:14:43.543Z,4.20
2023-11-24T00:19:45.653Z,4.63
2023-11-24T00:24:53.283Z,3.40
2023-11-24T00:29:55.673Z,5.07
2023-11-24T00:34:57.799Z,4.60
2023-11-24T00:39:59.965Z,6.07
2023-11-24T00:45:03.908Z,4.72
2023-11-24T00:50:07.383Z,4.45
2023-11-24T00:55:09.744Z,5.40
2023-11-24T01:00:12.286Z,5.55
2023-11-24T01:05:14.573Z,4.57
2023-11-24T01:10:16.711Z,4.22
2023-11-24T01:15:19.321Z,3.40
2023-11-24T01:20:22.942Z,4.28
2023-11-24T01:25:25.140Z,5.82
2023-11-24T01:30:28.021Z,4.28
2023-11-24T01:35:30.749Z,5.13
2023-11-24T01:40:35.312Z,5.28
2023-11-24T01:45:37.579Z,5.55
2023-11-24T01:50:40.031Z,4.65
2023-11-24T01:55:43.075Z,5.68
2023-11-24T02:00:45.983Z,6.30
2023-11-24T02:05:48.804Z,5.15
2023-11-24T02:10:50.981Z,6.32
2023-11-24T02:15:57.359Z,6.20
2023-11-24T02:21:02.113Z,6.18
2023-11-24T02:26:04.967Z,6.05
2023-11-24T02:31:09.121Z,6.38
2023-11-24T02:36:18.777Z,6.60
2023-11-24T02:41:24.323Z,7.72
2023-11-24T02:46:26.488Z,7.90
2023-11-24T02:51:29.893Z,8.38
2023-11-24T02:56:32.269Z,10.45
2023-11-24T03:01:34.586Z,9.20
2023-11-24T03:06:43.802Z,8.68
2023-11-24T03:11:45.914Z,6.90
2023-11-24T03:16:52.865Z,7.82
2023-11-24T03:21:55.143Z,5.90
2023-11-24T03:26:57.304Z,6.88
2023-11-24T03:31:59.481Z,6.72
2023-11-24T03:37:01.726Z,7.95
2023-11-24T03:42:04.154Z,8.85
2023-11-24T03:47:07.210Z,7.35
2023-11-24T03:52:09.440Z,7.75
2023-11-24T03:57:11.687Z,7.75
2023-11-24T04:02:14.809Z,5.30
2023-11-24T04:07:17.086Z,7.72
2023-11-24T04:12:19.178Z,6.75
2023-11-24T04:17:21.472Z,6.95
2023-11-24T04:22:23.616Z,6.68
2023-11-24T04:27:25.918Z,7.68
2023-11-24T04:32:28.116Z,8.43
2023-11-24T04:37:30.234Z,5.93
2023-11-24T04:42:32.556Z,7.60
2023-11-24T04:47:35.512Z,7.75
2023-11-24T04:52:37.785Z,7.70
2023-11-24T04:57:40.486Z,8.32
2023-11-24T05:02:42.757Z,8.55
2023-11-24T05:07:45.162Z,8.63
2023-11-24T05:12:47.421Z,12.15
2023-11-24T05:17:49.732Z,8.80
2023-11-24T05:22:51.958Z,10.80
2023-11-24T05:27:54.134Z,10.73
2023-11-24T05:32:56.387Z,11.10
2023-11-24T05:38:00.439Z,9.32
2023-11-24T05:43:02.965Z,9.00
2023-11-24T05:48:05.491Z,12.23
2023-11-24T05:53:07.701Z,11.73
2023-11-24T05:58:10.041Z,12.80
2023-11-24T06:03:12.376Z,12.65
2023-11-24T06:08:14.593Z,12.98
2023-11-24T06:13:17.269Z,10.45
2023-11-24T06:18:19.729Z,11.75
2023-11-24T06:23:22.540Z,11.43
2023-11-24T06:28:26.134Z,10.85
2023-11-24T06:33:28.778Z,11.88
2023-11-24T06:38:31.148Z,11.48
2023-11-24T06:43:33.421Z,11.77
2023-11-24T06:48:39.513Z,11.63
2023-11-24T06:53:41.757Z,11.80
2023-11-24T06:58:43.844Z,11.90
2023-11-24T07:03:46.771Z,12.55
2023-11-24T07:08:49.044Z,10.85
2023-11-24T07:13:52.816Z,12.05
2023-11-24T07:18:55.272Z,10.75
2023-11-24T07:23:57.786Z,11.80
2023-11-24T07:29:00.035Z,13.60
2023-11-24T07:34:02.353Z,13.07
2023-11-24T07:39:04.922Z,10.43
2023-11-24T07:44:07.239Z,11.88
2023-11-24T07:49:09.438Z,11.55
2023-11-24T07:54:11.693Z,11.50
2023-11-24T07:59:13.910Z,11.10
2023-11-24T08:04:16.132Z,14.35
2023-11-24T08:09:18.553Z,12.60
2023-11-24T08:14:25.388Z,11.43
2023-11-24T08:19:28.340Z,11.18
2023-11-24T08:24:30.594Z,10.93
2023-11-24T08:29:32.731Z,10.93
2023-11-24T08:34:34.888Z,13.10
2023-11-24T08:39:37.078Z,11.48
2023-11-24T08:44:40.431Z,11.63
2023-11-24T08:49:42.817Z,11.93
2023-11-24T08:54:44.979Z,11.18
2023-11-24T08:59:47.149Z,10.45
2023-11-24T09:04:50.719Z,11.35
2023-11-24T09:09:53.459Z,12.40
2023-11-24T09:14:55.766Z,11.88
2023-11-24T09:19:58.473Z,11.50
2023-11-24T09:25:03.524Z,11.68
2023-11-24T09:30:09.946Z,11.88
2023-11-24T09:35:12.514Z,11.05
2023-11-24T09:40:18.125Z,11.52
2023-11-24T09:45:23.907Z,11.70
2023-11-24T09:50:28.201Z,11.68
2023-11-24T09:55:30.812Z,10.70
2023-11-24T10:00:33.196Z,13.27
2023-11-24T10:05:35.346Z,11.23
2023-11-24T10:10:37.473Z,11.35
2023-11-24T10:15:39.600Z,11.32
2023-11-24T10:20:42.641Z,10.65
2023-11-24T10:25:44.792Z,10.07
2023-11-24T10:30:47.118Z,10.45
2023-11-24T10:35:50.666Z,10.00
2023-11-24T10:40:52.919Z,10.75
2023-11-24T10:45:57.892Z,10.90
2023-11-24T10:51:05.940Z,11.63
2023-11-24T10:56:09.761Z,11.90
2023-11-24T11:01:14.342Z,13.07
2023-11-24T11:06:35.123Z,11.45
2023-11-24T11:11:50.773Z,12.00
2023-11-24T11:16:53.650Z,11.38
2023-11-24T11:21:57.728Z,15.27
2023-11-24T11:27:00.006Z,11.90
2023-11-24T11:32:03.742Z,14.63
2023-11-24T11:37:08.467Z,12.50
2023-11-24T11:42:12.190Z,10.40
2023-11-24T11:47:28.424Z,12.30
2023-11-24T11:52:32.624Z,12.15
2023-11-24T11:57:36.058Z,11.30
2023-11-24T12:02:39.400Z,13.55
2023-11-24T12:07:45.097Z,12.52
2023-11-24T12:12:47.297Z,10.35
2023-11-24T12:17:49.588Z,11.60
2023-11-24T12:22:54.433Z,10.75
2023-11-24T12:28:00.536Z,9.60
2023-11-24T12:33:02.692Z,10.50
2023-11-24T12:38:06.026Z,9.98
2023-11-24T12:43:13.277Z,10.88
2023-11-24T12:48:25.535Z,10.05
2023-11-24T12:53:29.936Z,10.77
2023-11-24T12:58:32.055Z,9.95
2023-11-24T13:03:34.150Z,10.13
2023-11-24T13:08:38.195Z,9.65
2023-11-24T13:13:40.265Z,19.70
2023-11-24T13:18:42.425Z,10.18
2023-11-24T13:23:44.800Z,10.90
2023-11-24T13:28:47.026Z,11.52
2023-11-24T13:33:49.127Z,10.02
2023-11-24T13:38:55.134Z,9.68
2023-11-24T13:43:57.571Z,9.65
2023-11-24T13:49:00.525Z,10.02
2023-11-24T13:54:05.202Z,10.43
2023-11-24T13:59:13.177Z,11.20
2023-11-24T14:04:15.926Z,10.35
2023-11-24T14:09:19.066Z,13.90
2023-11-24T14:14:21.495Z,10.65
2023-11-24T14:19:23.740Z,10.65
2023-11-24T14:24:25.958Z,10.00
2023-11-24T14:29:29.648Z,12.57
2023-11-24T14:34:31.925Z,11.50
2023-11-24T14:39:34.908Z,12.40
2023-11-24T14:44:40.706Z,11.20
2023-11-24T14:49:42.834Z,11.77
2023-11-24T14:54:45.076Z,11.88
2023-11-24T14:59:49.642Z,11.55
2023-11-24T15:04:51.756Z,10.07
2023-11-24T15:09:53.973Z,10.98
2023-11-24T15:15:00.415Z,12.20
2023-11-24T15:20:06.151Z,11.60
2023-11-24T15:25:08.712Z,11.52
2023-11-24T15:30:13.242Z,11.43
2023-11-24T15:35:15.367Z,12.80
2023-11-24T15:40:21.976Z,12.73
2023-11-24T15:45:25.164Z,12.10
2023-11-24T15:50:30.728Z,11.73
2023-11-24T15:55:34.175Z,13.45
2023-11-24T16:00:41.137Z,12.27
2023-11-24T16:05:50.680Z,12.73
2023-11-24T16:10:58.957Z,13.50
2023-11-24T16:16:01.295Z,13.82
2023-11-24T16:21:03.782Z,12.50
2023-11-24T16:26:06.092Z,12.98
2023-11-24T16:31:08.514Z,15.05
2023-11-24T16:36:12.373Z,15.80
2023-11-24T16:41:15.911Z,14.30
2023-11-24T16:46:19.038Z,13.65
2023-11-24T16:51:21.264Z,13.60
2023-11-24T16:56:25.252Z,19.45
2023-11-24T17:01:27.567Z,13.95
2023-11-24T17:06:29.818Z,13.38
2023-11-24T17:11:32.014Z,12.48
2023-11-24T17:16:37.109Z,12.52
2023-11-24T17:21:45.676Z,13.43
2023-11-24T17:26:47.982Z,12.80
2023-11-24T17:31:54.087Z,13.40
2023-11-24T17:36:56.229Z,13.32
2023-11-24T17:41:58.436Z,13.13
2023-11-24T17:47:00.822Z,13.68
2023-11-24T17:52:03.401Z,14.32
2023-11-24T17:57:05.993Z,13.38
2023-11-24T18:02:09.451Z,12.15
2023-11-24T18:07:13.991Z,13.63
2023-11-24T18:12:17.384Z,13.98
2023-11-24T18:17:19.628Z,12.60
2023-11-24T18:22:22.461Z,14.65
2023-11-24T18:27:25.234Z,12.63
2023-11-24T18:32:27.419Z,11.57
2023-11-24T18:37:30.245Z,11.93
2023-11-24T18:42:33.868Z,11.57
2023-11-24T18:47:36.397Z,9.32
2023-11-24T18:52:38.793Z,15.27
2023-11-24T18:57:44.328Z,16.55
2023-11-24T19:02:50.907Z,14.73
2023-11-24T19:07:53.134Z,17.73
2023-11-24T19:12:56.444Z,17.02
2023-11-24T19:17:59.159Z,15.02
2023-11-24T19:23:01.370Z,14.45
2023-11-24T19:28:03.819Z,13.98
2023-11-24T19:33:07.385Z,12.70
2023-11-24T19:38:09.501Z,12.13
2023-11-24T19:43:11.762Z,11.95
2023-11-24T19:48:14.362Z,11.70
2023-11-24T19:53:16.504Z,13.73
2023-11-24T19:58:18.732Z,11.82
2023-11-24T20:03:20.926Z,11.27
2023-11-24T20:08:23.172Z,12.30
2023-11-24T20:13:25.403Z,11.32
2023-11-24T20:18:27.824Z,11.25
2023-11-24T20:23:30.127Z,12.82
2023-11-24T20:28:33.194Z,10.75
2023-11-24T20:33:35.428Z,11.63
2023-11-24T20:38:37.578Z,9.90
2023-11-24T20:43:40.451Z,10.85
2023-11-24T20:48:44.830Z,10.82
2023-11-24T20:53:47.008Z,10.13
2023-11-24T20:58:49.149Z,9.98
2023-11-24T21:03:51.474Z,15.00
2023-11-24T21:09:00.752Z,12.57
2023-11-24T21:14:03.026Z,9.35
2023-11-24T21:19:05.680Z,11.10
2023-11-24T21:24:08.579Z,11.35
2023-11-24T21:29:10.791Z,11.50
2023-11-24T21:34:13.140Z,11.07
2023-11-24T21:39:15.537Z,11.55
2023-11-24T21:44:17.781Z,11.65
2023-11-24T21:49:20.018Z,12.77
2023-11-24T21:54:22.148Z,15.68
2023-11-24T21:59:24.276Z,14.60
2023-11-24T22:04:26.466Z,12.88
2023-11-24T22:09:28.690Z,12.20
2023-11-24T22:14:30.878Z,14.02
2023-11-24T22:19:36.296Z,13.60
2023-11-24T22:24:38.518Z,12.55
2023-11-24T22:29:51.279Z,11.68
2023-11-24T22:35:02.929Z,11.85
2023-11-24T22:40:08.520Z,12.35
2023-11-24T22:45:11.208Z,11.75
2023-11-24T22:50:13.433Z,12.63
2023-11-24T22:55:15.849Z,11.80
2023-11-24T23:00:51.496Z,12.00
2023-11-24T23:05:53.712Z,11.18
2023-11-24T23:10:55.804Z,11.77
2023-11-24T23:15:57.913Z,12.80
2023-11-24T23:21:01.052Z,12.73
2023-11-24T23:26:06.610Z,12.20
2023-11-24T23:31:13.406Z,13.00
2023-11-24T23:36:16.695Z,12.60
2023-11-24T23:41:18.863Z,14.10
2023-11-24T23:46:22.092Z,12.88
2023-11-24T23:51:24.410Z,14.45
2023-11-24T23:56:26.539Z,14.32
